Latest Weather Observations for Braidwood

IDN60801

Issued at 1:12 pm EDT Thursday 24 October 2019 (issued every 10 minutes, with the page automatically refreshed every 10 minutes)

About weather observations | Map of weather stations | Latest weather observations for NSW | Other Formats
Station Details ID: 069132 Name: BRAIDWOOD RACECOURSE AWS Lat: -35.43 Lon: 149.78 Height: 665.2 m
Data from the previous 72 hours. | See also: Recent months at Braidwood
Date/Time
EDT
Temp
°C
App
Temp
°C
Dew
Point
°C
Rel
Hum
%
Delta-T
°C
Wind Press
QNH
hPa
Press
MSL
hPa
Rain since
9am
mm
Dir  Spd
km/h
Gust
km/h
Spd
kts
Gust
kts
24/01:00pm 28.3 22.2 -3.8 12 14.6 W 19 30 10 16 1018.6 1017.8 0.0
24/12:30pm 27.5 20.4 -4.4 12 14.3 W 24 41 13 22 1019.0 1018.1 0.0
24/12:00pm 27.3 22.0 -3.5 13 14.0 W 15 22 8 12 1019.4 1018.6 0.0
24/11:30am 26.2 22.2 -2.4 15 13.1 SSW 9 19 5 10 1019.7 1018.9 0.0
24/11:00am 26.2 23.4 2.2 21 12.0 N 6 11 3 6 1020.0 1019.2 0.0
24/10:30am 24.2 21.4 1.8 23 11.0 N 6 11 3 6 1020.4 1019.6 0.0
24/10:00am 23.7 21.5 3.6 27 10.1 N 4 9 2 5 1020.7 1019.9 0.0
24/09:30am 21.0 19.0 2.3 29 9.0 NNW 2 6 1 3 1020.9 1020.1 0.0
24/09:00am 18.6 16.7 0.7 30 8.2 CALM 0 4 0 2 1020.9 1020.1 0.0
24/08:30am 15.5 14.2 4.3 47 5.4 CALM 0 0 0 0 1021.0 1020.2 0.0
24/08:00am 13.3 12.0 4.2 54 4.3 CALM 0 0 0 0 1021.0 1020.2 0.0
24/07:30am 9.2 7.8 3.8 69 2.5 CALM 0 0 0 0 1020.9 1020.1 0.0
24/07:00am 6.6 5.0 2.7 76 1.7 CALM 0 0 0 0 1020.8 1020.0 0.0
24/06:30am 5.1 3.4 1.6 78 1.5 CALM 0 0 0 0 1020.6 1019.7 0.0
24/06:00am 5.3 3.5 1.1 74 1.7 CALM 0 0 0 0 1020.4 1019.6 0.0
24/05:30am 5.8 4.1 1.9 76 1.6 CALM 0 0 0 0 1020.3 1019.5 0.0
24/05:00am 7.6 6.2 3.5 75 1.8 CALM 0 0 0 0 1020.2 1019.4 0.0
24/04:30am 7.6 6.2 3.3 74 1.9 CALM 0 0 0 0 1020.0 1019.2 0.0
24/04:00am 7.1 5.5 2.4 72 2.0 CALM 0 0 0 0 1020.1 1019.3 0.0
24/03:30am 9.1 7.7 3.7 69 2.4 CALM 0 0 0 0 1020.2 1019.4 0.0
24/03:00am 9.4 8.0 3.6 67 2.6 CALM 0 0 0 0 1020.4 1019.6 0.0
24/02:30am 10.4 9.1 3.9 64 3.0 CALM 0 0 0 0 1020.6 1019.7 0.0
24/02:00am 11.1 9.8 3.9 61 3.3 CALM 0 0 0 0 1020.8 1020.0 0.0
24/01:30am 11.2 9.9 4.2 62 3.3 CALM 0 0 0 0 1021.1 1020.3 0.0
24/01:00am 10.5 9.1 3.3 61 3.3 CALM 0 0 0 0 1021.4 1020.6 0.0
24/12:30am 12.0 9.5 3.8 57 3.8 ESE 6 7 3 4 1021.6 1020.8 0.0
24/12:00am 13.7 11.4 4.6 54 4.3 S 6 11 3 6 1021.9 1021.2 0.0
 
Date/Time
EDT
Temp
°C
App
Temp
°C
Dew
Point
°C
Rel
Hum
%
Delta-T
°C
Wind Press
QNH
hPa
Press
MSL
hPa
Rain since
9am
mm
Dir  Spd
km/h
Gust
km/h
Spd
kts
Gust
kts
23/11:30pm 12.8 10.7 5.7 62 3.5 S 6 11 3 6 1022.0 1021.3 0.0
23/11:00pm 11.8 11.0 6.5 70 2.6 CALM 0 4 0 2 1022.2 1021.4 0.0
23/10:30pm 12.3 10.7 6.4 67 2.9 SE 4 6 2 3 1022.2 1021.4 0.0
23/10:00pm 13.2 12.5 7.0 66 3.1 CALM 0 0 0 0 1022.3 1021.5 0.0
23/09:30pm 13.7 12.4 6.1 60 3.8 SE 2 7 1 4 1022.3 1021.5 0.0
23/09:00pm 15.8 13.5 7.3 57 4.4 S 9 13 5 7 1022.0 1021.3 0.0
23/08:30pm 15.6 13.6 7.1 57 4.3 S 7 11 4 6 1021.6 1020.8 0.0
23/08:00pm 16.3 14.1 6.4 52 5.0 S 7 9 4 5 1021.3 1020.5 0.0
23/07:30pm 19.1 16.5 6.2 43 6.6 SSE 9 15 5 8 1020.7 1019.9 0.0
23/07:00pm 21.0 16.4 5.8 37 7.8 SE 19 30 10 16 1020.0 1019.2 0.0
23/06:30pm 22.3 18.8 7.3 38 8.0 SE 15 22 8 12 1019.7 1018.9 0.0
23/06:00pm 24.1 20.0 6.4 32 9.4 ESE 17 24 9 13 1019.1 1018.2 0.0
23/05:30pm 25.7 22.0 4.2 25 11.1 WSW 13 22 7 12 1018.7 1017.9 0.0
23/05:00pm 27.3 21.1 -4.6 12 14.2 NW 19 28 10 15 1018.3 1017.5 0.0
23/04:30pm 27.8 21.5 -4.2 12 14.4 WNW 20 33 11 18 1018.3 1017.5 0.0
23/04:00pm 27.8 22.9 -3.1 13 14.2 WNW 13 32 7 17 1018.5 1017.7 0.0
23/03:30pm 27.4 21.0 -4.5 12 14.3 W 20 37 11 20 1018.8 1018.0 0.0
23/03:00pm 27.6 21.0 -3.3 13 14.1 W 22 33 12 18 1019.3 1018.5 0.0
23/02:30pm 27.9 22.5 1.4 18 13.2 W 19 28 10 15 1019.6 1018.8 0.0
23/02:00pm 27.1 21.5 1.5 19 12.7 WNW 20 35 11 19 1020.1 1019.3 0.0
23/01:30pm 26.5 21.2 1.7 20 12.3 W 19 28 10 15 1020.7 1019.9 0.0
23/01:00pm 25.6 19.0 -0.5 18 12.3 WNW 24 35 13 19 1021.2 1020.4 0.0
23/12:30pm 25.8 18.1 -0.3 18 12.4 WNW 30 43 16 23 1021.4 1020.6 0.0
23/12:00pm 25.8 19.8 1.2 20 12.0 WNW 22 39 12 21 1021.9 1021.2 0.0
23/11:30am 25.1 19.4 0.6 20 11.8 W 20 41 11 22 1022.4 1021.6 0.0
23/11:28am 25.3 19.8 0.8 20 11.9 W 19 41 10 22 1022.3 1021.5 0.0
23/11:00am 24.9 21.0 3.5 25 10.8 NW 13 22 7 12 1022.7 1021.9 0.0
23/10:30am 22.9 20.9 6.2 34 8.8 NNW 6 13 3 7 1023.1 1022.3 0.0
23/10:00am 19.8 18.6 9.4 51 5.7 N 6 11 3 6 1023.5 1022.8 0.0
23/09:30am 17.8 16.9 10.7 63 3.9 NNW 6 9 3 5 1023.8 1023.0 0.0
23/09:00am 15.1 14.3 9.7 70 2.9 NNW 4 9 2 5 1023.9 1023.1 0.0
23/08:33am 13.4 12.8 10.4 82 1.6 NNW 4 9 2 5 1024.0 1023.2 0.0
23/08:30am 13.2 12.5 10.2 82 1.6 NNW 4 9 2 5 1024.0 1023.2 0.0
23/08:00am 11.0 9.9 10.1 94 0.5 NNE 6 9 3 5 1024.2 1023.4 0.0
23/07:30am 10.5 9.8 10.0 97 0.3 N 4 9 2 5 1024.2 1023.4 0.0
23/07:00am 10.0 9.2 9.5 97 0.3 N 4 9 2 5 1024.2 1023.4 0.0
23/06:30am 9.5 8.9 9.0 97 0.3 N 2 4 1 2 1024.0 1023.2 0.0
23/06:00am 8.8 8.1 8.4 97 0.2 N 2 7 1 4 1023.8 1023.0 0.0
23/05:30am 6.6 5.7 6.0 96 0.3 CALM 0 0 0 0 1023.6 1022.9 0.0
23/05:00am 5.3 4.1 4.6 95 0.3 CALM 0 0 0 0 1023.8 1023.0 0.0
23/04:30am 5.8 4.7 5.2 96 0.3 CALM 0 0 0 0 1023.9 1023.1 0.0
23/04:00am 6.4 5.4 5.8 96 0.3 CALM 0 2 0 1 1023.9 1023.1 0.0
23/03:30am 7.1 6.3 6.5 96 0.3 CALM 0 0 0 0 1024.1 1023.3 0.0
23/03:11am 7.4 6.7 6.8 96 0.3 CALM 0 4 0 2 1024.2 1023.4 0.0
23/03:00am 7.3 6.1 6.6 95 0.3 NW 2 4 1 2 1024.3 1023.5 0.0
23/02:30am 7.6 6.8 6.7 94 0.4 CALM 0 0 0 0 1024.6 1023.9 0.0
23/02:00am 7.8 7.0 6.7 93 0.5 CALM 0 0 0 0 1024.7 1024.0 0.0
23/01:30am 8.5 7.9 7.3 92 0.6 CALM 0 0 0 0 1025.2 1024.5 0.0
23/01:00am 8.8 7.4 7.1 89 0.8 NNE 4 6 2 3 1025.7 1024.9 0.0
23/12:30am 9.0 8.1 6.1 82 1.4 CALM 0 0 0 0 1026.1 1025.4 0.0
23/12:00am 10.9 10.1 8.0 82 1.5 N 2 4 1 2 1026.1 1025.4 0.0
 
Date/Time
EDT
Temp
°C
App
Temp
°C
Dew
Point
°C
Rel
Hum
%
Delta-T
°C
Wind Press
QNH
hPa
Press
MSL
hPa
Rain since
9am
mm
Dir  Spd
km/h
Gust
km/h
Spd
kts
Gust
kts
22/11:30pm 12.7 11.8 9.2 79 1.8 NNE 4 7 2 4 1026.3 1025.6 0.0
22/11:00pm 13.3 12.4 10.5 83 1.5 ENE 6 7 3 4 1026.4 1025.7 0.0
22/10:51pm 13.4 12.4 10.4 82 1.6 ENE 6 7 3 4 1026.3 1025.6 0.0
22/10:30pm 13.6 12.7 10.8 83 1.5 E 6 7 3 4 1026.4 1025.7 0.0
22/10:00pm 13.7 12.8 10.7 82 1.6 ESE 6 7 3 4 1026.3 1025.6 0.0
22/09:30pm 13.8 12.9 10.6 81 1.7 ESE 6 7 3 4 1026.3 1025.6 0.0
22/09:00pm 13.7 12.8 10.5 81 1.7 SE 6 9 3 5 1026.2 1025.5 0.0
22/08:30pm 13.7 12.2 10.5 81 1.7 ESE 9 13 5 7 1026.0 1025.3 0.0
22/08:00pm 13.3 12.0 10.1 81 1.7 SE 7 11 4 6 1025.8 1025.0 0.0
22/07:50pm 13.2 11.5 9.8 80 1.8 SE 9 17 5 9 1025.7 1024.9 0.0
22/07:30pm 13.3 11.1 9.5 78 2.0 SE 11 17 6 9 1025.5 1024.7 0.0
22/07:00pm 14.3 11.2 8.9 70 2.8 SE 15 20 8 11 1025.1 1024.4 0.0
22/06:30pm 15.4 11.4 8.4 63 3.7 SE 19 26 10 14 1024.6 1023.9 0.0
22/06:00pm 16.4 12.2 8.4 59 4.2 SE 20 30 11 16 1024.2 1023.4 0.0
22/05:30pm 17.7 13.2 8.6 55 4.9 ESE 22 32 12 17 1023.8 1023.0 0.0
22/05:00pm 17.9 13.1 8.7 55 4.9 SE 24 33 13 18 1023.4 1022.7 0.0
22/04:30pm 19.3 14.8 10.0 55 5.1 ESE 24 35 13 19 1023.3 1022.6 0.0
22/04:00pm 19.7 14.8 9.9 53 5.4 SE 26 33 14 18 1023.0 1022.2 0.0
22/03:30pm 20.8 15.5 9.7 49 6.1 ESE 28 33 15 18 1022.8 1022.0 0.0
22/03:00pm 21.8 16.5 10.0 47 6.6 ESE 28 33 15 18 1022.9 1022.1 0.0
22/02:30pm 22.5 17.2 10.0 45 7.0 ESE 28 35 15 19 1023.0 1022.2 0.0
22/02:00pm 24.0 18.5 7.6 35 8.9 ESE 26 35 14 19 1023.1 1022.3 0.0
22/01:30pm 25.4 22.2 -3.1 15 12.9 WSW 4 7 2 4 1023.3 1022.6 0.0
22/01:00pm 24.6 21.0 -2.0 17 12.1 W 7 13 4 7 1023.6 1022.9 0.0
22/12:30pm 24.1 21.3 2.3 24 10.8 SSW 6 11 3 6 1024.0 1023.2 0.0
22/12:00pm 23.3 20.2 3.8 28 9.8 W 9 20 5 11 1024.5 1023.8 0.0
22/11:30am 22.4 20.3 6.6 36 8.3 SSW 7 13 4 7 1024.9 1024.2 0.0
22/11:00am 21.6 20.4 8.1 42 7.3 WSW 4 7 2 4 1025.6 1024.8 0.0
22/10:30am 19.1 17.8 7.5 47 6.1 N 4 9 2 5 1025.9 1025.2 0.0
22/10:00am 17.4 17.1 8.5 56 4.7 CALM 0 6 0 3 1026.0 1025.3 0.0
22/09:30am 15.3 14.7 9.0 66 3.3 NE 2 7 1 4 1026.2 1025.5 0.0
22/09:00am 13.1 12.1 8.8 75 2.2 NE 4 7 2 4 1026.2 1025.5 0.0
22/08:30am 9.9 9.3 9.1 95 0.4 NNW 2 6 1 3 1026.2 1025.5 0.0
22/08:00am 8.2 7.7 7.8 97 0.2 CALM 0 0 0 0 1026.2 1025.5 0.0
22/07:30am 5.9 4.9 5.5 97 0.2 CALM 0 0 0 0 1026.1 1025.4 0.0
22/07:00am 4.1 2.7 3.5 96 0.3 CALM 0 0 0 0 1025.9 1025.2 0.0
22/06:30am 3.0 1.4 2.4 96 0.2 CALM 0 0 0 0 1025.6 1024.8 0.0
22/06:00am 2.6 0.9 2.0 96 0.2 CALM 0 0 0 0 1025.6 1024.8 0.0
22/05:30am 3.1 1.5 2.5 96 0.2 CALM 0 0 0 0 1025.4 1024.6 0.0
22/05:00am 3.1 1.5 2.5 96 0.2 CALM 0 0 0 0 1025.2 1024.5 0.0
22/04:30am 3.0 1.4 2.3 95 0.3 CALM 0 0 0 0 1025.1 1024.4 0.0
22/04:00am 3.6 2.1 2.9 95 0.3 CALM 0 0 0 0 1025.4 1024.6 0.0
22/03:30am 3.8 2.3 3.1 95 0.3 CALM 0 0 0 0 1025.5 1024.7 0.0
22/03:00am 3.5 2.0 2.8 95 0.3 CALM 0 0 0 0 1025.7 1024.9 0.0
22/02:30am 4.1 2.3 3.4 95 0.3 SSE 2 2 1 1 1025.9 1025.2 0.0
22/02:00am 4.4 3.0 3.5 94 0.4 CALM 0 0 0 0 1026.2 1025.5 0.0
22/01:30am 4.7 3.4 4.0 95 0.3 CALM 0 0 0 0 1026.5 1025.8 0.0
22/01:00am 5.0 3.7 4.1 94 0.4 CALM 0 0 0 0 1026.7 1026.0 0.0
22/12:30am 5.2 3.9 4.3 94 0.4 CALM 0 0 0 0 1027.1 1026.3 0.0
22/12:00am 5.9 4.8 5.0 94 0.4 CALM 0 0 0 0 1027.2 1026.5 0.0
 
Date/Time
EDT
Temp
°C
App
Temp
°C
Dew
Point
°C
Rel
Hum
%
Delta-T
°C
Wind Press
QNH
hPa
Press
MSL
hPa
Rain since
9am
mm
Dir  Spd
km/h
Gust
km/h
Spd
kts
Gust
kts
21/11:30pm 6.2 5.1 5.3 94 0.4 CALM 0 0 0 0 1027.1 1026.3 0.0
21/11:12pm 6.8 5.9 6.1 95 0.3 CALM 0 0 0 0 1027.1 1026.3 0.0
21/11:00pm 7.0 6.1 5.9 93 0.5 CALM 0 0 0 0 1027.2 1026.5 0.0
21/10:30pm 6.8 5.7 5.3 90 0.7 CALM 0 0 0 0 1027.4 1026.7 0.0
21/10:00pm 8.5 7.1 7.4 93 0.5 NW 4 6 2 3 1027.5 1026.8 0.0
21/09:30pm 9.0 7.7 7.5 90 0.7 SSW 4 4 2 2 1027.4 1026.7 0.0
21/09:00pm 9.5 8.5 7.4 87 1.0 SSE 2 4 1 2 1027.3 1026.6 0.0
21/08:30pm 10.7 9.1 8.6 87 1.1 SE 7 9 4 5 1027.1 1026.3 0.0
21/08:00pm 11.2 9.5 8.4 83 1.4 SE 7 9 4 5 1027.1 1026.3 0.0
21/07:30pm 12.2 10.1 8.3 77 2.0 SE 9 13 5 7 1026.7 1026.0 0.0
21/07:00pm 13.8 10.9 8.2 69 2.9 ESE 13 19 7 10 1026.2 1025.5 0.0
21/06:30pm 15.3 11.1 8.1 62 3.7 ESE 20 28 11 15 1025.7 1024.9 0.0
21/06:00pm 16.7 12.5 8.1 57 4.5 ESE 20 28 11 15 1025.4 1024.6 0.0
21/05:30pm 17.8 13.1 7.8 52 5.3 ESE 22 32 12 17 1025.0 1024.3 0.0
21/05:00pm 18.6 13.5 7.7 49 5.7 ESE 24 32 13 17 1024.7 1024.0 0.0
21/04:30pm 19.9 14.8 7.6 45 6.5 ESE 24 33 13 18 1024.5 1023.8 0.0
21/04:00pm 20.3 15.4 7.0 42 7.0 ESE 22 30 12 16 1024.5 1023.8 0.0
21/03:30pm 21.1 16.1 6.6 39 7.6 ESE 22 30 12 16 1024.5 1023.8 0.0
21/03:00pm 22.1 17.7 4.7 32 8.8 ESE 17 28 9 15 1024.6 1023.9 0.0
21/02:30pm 21.9 17.9 3.1 29 9.3 E 13 20 7 11 1024.9 1024.2 0.0
21/02:00pm 21.9 18.6 -0.1 23 10.2 E 7 13 4 7 1025.1 1024.4 0.0
21/01:30pm 21.4 18.1 -1.2 22 10.2 S 6 11 3 6 1025.5 1024.7 0.0

Other formats

Comma delimited format used in spreadsheet applications
http://www.bom.gov.au/fwo/IDN60801/IDN60801.94927.axf

JavaScript Object Notation format (JSON) in row-major order
http://www.bom.gov.au/fwo/IDN60801/IDN60801.94927.json

Data quality

Most of these data are generated automatically and are frequently updated. Quality checks on data are not normally performed. It is possible for incorrect values to appear. Refer to information at About Latest Weather Observations and please check the disclaimer before using these data.